Current Weather

San Francisco Intl

San Francisco, California (KSFO)

Report from: Friday, April 19, 2024 2:56 AM PDT
Current time: Friday, April 19, 2024 3:22 AM PDT

Nearby weather – Weather history – Daily summaries
Weather forecast

Temperature10.6°C (51.1°F)
Dew point8.3°C (46.9°F)
Winds 5 kts (2.6 m/s, 5.8 mph) West-Northwest (290°)
Visibility10 mi. (16.1 km)
Clouds Scattered clouds 18,000 ft. (5,486 m)
Altimeter29.96 in.Hg (1015 mB)
Relative humidity86 %
Density altitude-408 ft. (-124 m)
Sea-level pressure101.4 kPa (1014 mB, 29.96 in.Hg)
Remarks Automated weather observing station with precipitation discriminator
Flight conditions Visual Meteorological Conditions
Raw dataKSFO 190956Z 29005KT 10SM SCT180 11/08 A2996 RMK AO2 SLP144 T01060083
An error has occurred. This application may no longer respond until reloaded. Reload 🗙